Time,TemperatureF,DewpointF,PressureIn,WindDirection,WindDirectionDegrees,WindSpeedMPH,WindSpeedGustMPH,Humidity,HourlyPrecipIn,Conditions,Clouds,dailyrainin,SolarRadiationWatts/m^2,SoftwareType,DateUTC
2013-07-07 00:01:00,68.0,48.0,-100.00,NNE,31,4.0,24.0,48,0.00,,,0.01,0.000000,,2013-07-07 06:01:00,
2013-07-07 00:22:00,65.0,48.0,-100.00,NW,319,0.0,13.0,55,0.00,,,0.01,0.000000,,2013-07-07 06:22:00,
2013-07-07 00:32:00,65.0,48.0,-100.00,NW,319,0.0,13.0,55,0.00,,,0.01,0.000000,,2013-07-07 06:32:00,
2013-07-07 00:43:00,65.0,48.0,-100.00,NW,319,0.0,13.0,55,0.00,,,0.01,0.000000,,2013-07-07 06:43:00,
2013-07-07 00:52:00,65.0,48.0,-100.00,NW,319,0.0,13.0,55,0.00,,,0.01,0.000000,,2013-07-07 06:52:00,
2013-07-07 01:01:00,65.0,48.0,-100.00,NW,319,0.0,13.0,55,0.00,,,0.01,0.000000,,2013-07-07 07:01:00,
2013-07-07 01:22:00,64.0,48.0,-100.00,North,359,1.0,6.0,57,0.00,,,0.01,0.000000,,2013-07-07 07:22:00,
2013-07-07 01:33:00,64.0,48.0,-100.00,North,359,1.0,6.0,57,0.00,,,0.01,0.000000,,2013-07-07 07:33:00,
2013-07-07 01:44:00,64.0,48.0,-100.00,North,359,1.0,6.0,57,0.00,,,0.01,0.000000,,2013-07-07 07:44:00,
2013-07-07 01:53:00,64.0,48.0,-100.00,North,359,1.0,6.0,57,0.00,,,0.01,0.000000,,2013-07-07 07:53:00,
2013-07-07 02:02:00,64.0,48.0,-100.00,North,359,1.0,6.0,57,0.00,,,0.01,0.000000,,2013-07-07 08:02:00,
2013-07-07 02:22:00,64.0,48.0,-100.00,West,260,1.0,7.0,57,0.00,,,0.01,0.000000,,2013-07-07 08:22:00,
2013-07-07 02:34:00,64.0,48.0,-100.00,West,260,1.0,7.0,57,0.00,,,0.01,0.000000,,2013-07-07 08:34:00,
2013-07-07 02:44:00,64.0,48.0,-100.00,West,260,1.0,7.0,57,0.00,,,0.01,0.000000,,2013-07-07 08:44:00,
2013-07-07 02:53:00,64.0,48.0,-100.00,West,260,1.0,7.0,57,0.00,,,0.01,0.000000,,2013-07-07 08:53:00,
2013-07-07 03:02:00,64.0,48.0,-100.00,West,260,1.0,7.0,57,0.00,,,0.01,0.000000,,2013-07-07 09:02:00,
2013-07-07 03:03:00,63.0,48.0,-100.00,NW,307,5.0,8.0,57,0.00,,,0.01,0.000000,,2013-07-07 09:03:00,
2013-07-07 03:22:00,63.0,48.0,-100.00,NW,307,5.0,8.0,57,0.00,,,0.01,0.000000,,2013-07-07 09:22:00,
2013-07-07 03:34:00,63.0,48.0,-100.00,NW,307,5.0,8.0,57,0.00,,,0.01,0.000000,,2013-07-07 09:34:00,
2013-07-07 03:43:00,63.0,48.0,-100.00,NW,307,5.0,8.0,57,0.00,,,0.01,0.000000,,2013-07-07 09:43:00,
2013-07-07 03:53:00,63.0,48.0,-100.00,NW,307,5.0,8.0,57,0.00,,,0.01,0.000000,,2013-07-07 09:53:00,
2013-07-07 04:23:00,61.0,47.0,-100.00,WNW,288,4.0,11.0,61,0.00,,,0.01,0.000000,,2013-07-07 10:23:00,
2013-07-07 04:32:00,61.0,47.0,-100.00,WNW,288,4.0,11.0,61,0.00,,,0.01,0.000000,,2013-07-07 10:32:00,
2013-07-07 04:43:00,61.0,47.0,-100.00,WNW,288,4.0,11.0,61,0.00,,,0.01,0.000000,,2013-07-07 10:43:00,
2013-07-07 04:52:00,61.0,47.0,-100.00,WNW,288,4.0,11.0,61,0.00,,,0.01,0.000000,,2013-07-07 10:52:00,
2013-07-07 05:02:00,61.0,47.0,-100.00,WNW,288,4.0,11.0,61,0.00,,,0.01,0.000000,,2013-07-07 11:02:00,
2013-07-07 05:23:00,57.0,46.0,-100.00,SW,222,6.0,10.0,67,0.00,,,0.01,0.000000,,2013-07-07 11:23:00,
2013-07-07 05:34:00,57.0,46.0,-100.00,SW,222,6.0,10.0,67,0.00,,,0.01,0.000000,,2013-07-07 11:34:00,
2013-07-07 05:43:00,57.0,46.0,-100.00,SW,222,6.0,10.0,67,0.00,,,0.01,0.000000,,2013-07-07 11:43:00,
2013-07-07 05:53:00,57.0,46.0,-100.00,SW,222,6.0,10.0,67,0.00,,,0.01,0.000000,,2013-07-07 11:53:00,
2013-07-07 06:02:00,57.0,46.0,-100.00,SW,222,6.0,10.0,67,0.00,,,0.01,0.000000,,2013-07-07 12:02:00,
2013-07-07 06:22:00,56.0,46.0,-100.00,WSW,248,0.0,8.0,69,0.00,,,0.01,2.000000,,2013-07-07 12:22:00,
2013-07-07 06:34:00,56.0,46.0,-100.00,WSW,248,0.0,8.0,69,0.00,,,0.01,2.000000,,2013-07-07 12:34:00,
2013-07-07 06:43:00,56.0,46.0,-100.00,WSW,248,0.0,8.0,69,0.00,,,0.01,2.000000,,2013-07-07 12:43:00,
2013-07-07 06:52:00,56.0,46.0,-100.00,WSW,248,0.0,8.0,69,0.00,,,0.01,2.000000,,2013-07-07 12:52:00,
2013-07-07 07:02:00,56.0,46.0,-100.00,WSW,248,0.0,8.0,69,0.00,,,0.01,2.000000,,2013-07-07 13:02:00,
2013-07-07 08:02:00,62.0,48.0,-100.00,SE,125,2.0,8.0,61,0.00,,,0.01,65.000000,,2013-07-07 14:02:00,
2013-07-07 08:53:00,65.0,47.0,-100.00,ESE,102,6.0,7.0,52,0.00,,,0.01,247.000000,,2013-07-07 14:53:00,
2013-07-07 09:02:00,65.0,47.0,-100.00,ESE,102,6.0,7.0,52,0.00,,,0.01,247.000000,,2013-07-07 15:02:00,
2013-07-07 09:34:00,67.0,48.0,-100.00,NE,39,5.0,9.0,51,0.00,,,0.01,474.000000,,2013-07-07 15:34:00,
2013-07-07 09:43:00,67.0,48.0,-100.00,NE,39,5.0,9.0,51,0.00,,,0.01,474.000000,,2013-07-07 15:43:00,
2013-07-07 09:52:00,67.0,48.0,-100.00,NE,39,5.0,9.0,51,0.00,,,0.01,474.000000,,2013-07-07 15:52:00,
2013-07-07 10:01:00,67.0,48.0,-100.00,NE,39,5.0,9.0,51,0.00,,,0.01,474.000000,,2013-07-07 16:01:00,
2013-07-07 10:34:00,71.0,49.0,-100.00,NNE,22,3.0,11.0,46,0.00,,,0.01,680.000000,,2013-07-07 16:34:00,
2013-07-07 10:43:00,71.0,49.0,-100.00,NNE,22,3.0,11.0,46,0.00,,,0.01,680.000000,,2013-07-07 16:43:00,
2013-07-07 10:53:00,71.0,49.0,-100.00,NNE,22,3.0,11.0,46,0.00,,,0.01,680.000000,,2013-07-07 16:53:00,
2013-07-07 11:02:00,71.0,49.0,-100.00,NNE,22,3.0,11.0,46,0.00,,,0.01,680.000000,,2013-07-07 17:02:00,
2013-07-07 11:22:00,73.0,50.0,-100.00,East,96,6.0,12.0,44,0.00,,,0.01,876.000000,,2013-07-07 17:22:00,
2013-07-07 11:34:00,73.0,50.0,-100.00,East,96,6.0,12.0,44,0.00,,,0.01,876.000000,,2013-07-07 17:34:00,
2013-07-07 11:43:00,73.0,50.0,-100.00,East,96,6.0,12.0,44,0.00,,,0.01,876.000000,,2013-07-07 17:43:00,
2013-07-07 11:53:00,73.0,50.0,-100.00,East,96,6.0,12.0,44,0.00,,,0.01,876.000000,,2013-07-07 17:53:00,
2013-07-07 12:01:00,73.0,50.0,-100.00,East,96,6.0,12.0,44,0.00,,,0.01,876.000000,,2013-07-07 18:01:00,
2013-07-07 12:33:00,77.0,49.0,-100.00,East,93,4.0,11.0,38,0.00,,,0.01,1018.000000,,2013-07-07 18:33:00,
2013-07-07 12:43:00,77.0,49.0,-100.00,East,93,4.0,11.0,38,0.00,,,0.01,1018.000000,,2013-07-07 18:43:00,
2013-07-07 12:53:00,77.0,49.0,-100.00,East,93,4.0,11.0,38,0.00,,,0.01,1018.000000,,2013-07-07 18:53:00,
2013-07-07 13:01:00,77.0,49.0,-100.00,East,93,4.0,11.0,38,0.00,,,0.01,1018.000000,,2013-07-07 19:01:00,
2013-07-07 13:22:00,80.0,48.0,-100.00,ESE,107,9.0,10.0,33,0.00,,,0.01,1120.000000,,2013-07-07 19:22:00,
2013-07-07 13:34:00,80.0,48.0,-100.00,ESE,107,9.0,10.0,33,0.00,,,0.01,1120.000000,,2013-07-07 19:34:00,
2013-07-07 13:43:00,80.0,48.0,-100.00,ESE,107,9.0,10.0,33,0.00,,,0.01,1120.000000,,2013-07-07 19:43:00,
2013-07-07 13:54:00,80.0,48.0,-100.00,ESE,107,9.0,10.0,33,0.00,,,0.01,1120.000000,,2013-07-07 19:54:00,
2013-07-07 14:02:00,80.0,48.0,-100.00,ESE,107,9.0,10.0,33,0.00,,,0.01,1120.000000,,2013-07-07 20:02:00,
2013-07-07 14:22:00,84.0,51.0,-100.00,NE,36,11.0,15.0,32,0.00,,,0.01,1198.000000,,2013-07-07 20:22:00,
2013-07-07 14:34:00,84.0,51.0,-100.00,NE,36,11.0,15.0,32,0.00,,,0.01,1198.000000,,2013-07-07 20:34:00,
2013-07-07 14:42:00,84.0,51.0,-100.00,NE,36,11.0,15.0,32,0.00,,,0.01,1198.000000,,2013-07-07 20:42:00,
2013-07-07 14:53:00,84.0,51.0,-100.00,NE,36,11.0,15.0,32,0.00,,,0.01,1198.000000,,2013-07-07 20:53:00,
2013-07-07 15:02:00,84.0,51.0,-100.00,NE,36,11.0,15.0,32,0.00,,,0.01,1198.000000,,2013-07-07 21:02:00,
2013-07-07 15:34:00,85.0,48.0,-100.00,NE,43,8.0,17.0,28,0.00,,,0.01,1032.000000,,2013-07-07 21:34:00,
2013-07-07 15:44:00,85.0,48.0,-100.00,NE,43,8.0,17.0,28,0.00,,,0.01,1032.000000,,2013-07-07 21:44:00,
2013-07-07 15:53:00,85.0,48.0,-100.00,NE,43,8.0,17.0,28,0.00,,,0.01,1032.000000,,2013-07-07 21:53:00,
2013-07-07 16:01:00,85.0,48.0,-100.00,NE,43,8.0,17.0,28,0.00,,,0.01,1032.000000,,2013-07-07 22:01:00,
2013-07-07 16:34:00,84.0,46.0,-100.00,NNE,25,9.0,16.0,27,0.00,,,0.01,750.000000,,2013-07-07 22:34:00,
2013-07-07 16:44:00,84.0,46.0,-100.00,NNE,25,9.0,16.0,27,0.00,,,0.01,750.000000,,2013-07-07 22:44:00,
2013-07-07 16:53:00,84.0,46.0,-100.00,NNE,25,9.0,16.0,27,0.00,,,0.01,750.000000,,2013-07-07 22:53:00,
2013-07-07 17:01:00,84.0,46.0,-100.00,NNE,25,9.0,16.0,27,0.00,,,0.01,750.000000,,2013-07-07 23:01:00,
2013-07-07 17:22:00,80.0,48.0,-100.00,North,6,2.0,23.0,33,0.00,,,0.01,584.000000,,2013-07-07 23:22:00,
2013-07-07 17:33:00,80.0,48.0,-100.00,North,6,2.0,23.0,33,0.00,,,0.01,584.000000,,2013-07-07 23:33:00,
2013-07-07 17:43:00,80.0,48.0,-100.00,North,6,2.0,23.0,33,0.00,,,0.01,584.000000,,2013-07-07 23:43:00,
2013-07-07 17:53:00,80.0,48.0,-100.00,North,6,2.0,23.0,33,0.00,,,0.01,584.000000,,2013-07-07 23:53:00,
2013-07-07 18:01:00,80.0,48.0,-100.00,North,6,2.0,23.0,33,0.00,,,0.01,584.000000,,2013-07-08 00:01:00,
2013-07-07 18:22:00,76.0,43.0,-100.00,South,189,8.0,16.0,31,0.00,,,0.00,285.000000,,2013-07-08 00:22:00,
2013-07-07 18:33:00,76.0,43.0,-100.00,South,189,8.0,16.0,31,0.00,,,0.00,285.000000,,2013-07-08 00:33:00,
2013-07-07 18:43:00,76.0,43.0,-100.00,South,189,8.0,16.0,31,0.00,,,0.00,285.000000,,2013-07-08 00:43:00,
2013-07-07 18:53:00,76.0,43.0,-100.00,South,189,8.0,16.0,31,0.00,,,0.00,285.000000,,2013-07-08 00:53:00,
2013-07-07 19:01:00,76.0,43.0,-100.00,South,189,8.0,16.0,31,0.00,,,0.00,285.000000,,2013-07-08 01:01:00,
2013-07-07 20:33:00,77.0,53.0,-100.00,WSW,242,2.0,26.0,44,-99.99,,,0.07,262.000000,,2013-07-08 02:33:00,
2013-07-07 20:42:00,77.0,53.0,-100.00,WSW,242,2.0,26.0,44,-99.99,,,0.07,262.000000,,2013-07-08 02:42:00,
2013-07-07 20:52:00,77.0,53.0,-100.00,WSW,242,2.0,26.0,44,-99.99,,,0.07,262.000000,,2013-07-08 02:52:00,
2013-07-07 21:01:00,77.0,53.0,-100.00,WSW,242,2.0,26.0,44,-99.99,,,0.07,262.000000,,2013-07-08 03:01:00,
2013-07-07 21:23:00,69.0,55.0,-100.00,West,272,2.0,13.0,62,0.00,,,0.07,75.000000,,2013-07-08 03:23:00,
2013-07-07 21:34:00,69.0,55.0,-100.00,West,272,2.0,13.0,62,0.00,,,0.07,75.000000,,2013-07-08 03:34:00,
2013-07-07 21:42:00,69.0,55.0,-100.00,West,272,2.0,13.0,62,0.00,,,0.07,75.000000,,2013-07-08 03:42:00,
2013-07-07 21:52:00,69.0,55.0,-100.00,West,272,2.0,13.0,62,0.00,,,0.07,75.000000,,2013-07-08 03:52:00,
2013-07-07 22:01:00,69.0,55.0,-100.00,West,272,2.0,13.0,62,0.00,,,0.07,75.000000,,2013-07-08 04:01:00,
2013-07-07 22:22:00,64.0,52.0,-100.00,WSW,244,6.0,7.0,66,0.00,,,0.07,3.000000,,2013-07-08 04:22:00,
2013-07-07 22:33:00,64.0,52.0,-100.00,WSW,244,6.0,7.0,66,0.00,,,0.07,3.000000,,2013-07-08 04:33:00,
2013-07-07 22:42:00,64.0,52.0,-100.00,WSW,244,6.0,7.0,66,0.00,,,0.07,3.000000,,2013-07-08 04:42:00,
2013-07-07 22:53:00,64.0,52.0,-100.00,WSW,244,6.0,7.0,66,0.00,,,0.07,3.000000,,2013-07-08 04:53:00,
2013-07-07 23:01:00,64.0,52.0,-100.00,WSW,244,6.0,7.0,66,0.00,,,0.07,3.000000,,2013-07-08 05:01:00,
2013-07-07 23:22:00,63.0,49.0,-100.00,WSW,243,3.0,11.0,61,0.00,,,0.07,0.000000,,2013-07-08 05:22:00,
2013-07-07 23:34:00,63.0,49.0,-100.00,WSW,243,3.0,11.0,61,0.00,,,0.07,0.000000,,2013-07-08 05:34:00,
2013-07-07 23:43:00,63.0,49.0,-100.00,WSW,243,3.0,11.0,61,0.00,,,0.07,0.000000,,2013-07-08 05:43:00,
2013-07-07 23:53:00,63.0,49.0,-100.00,WSW,243,3.0,11.0,61,0.00,,,0.07,0.000000,,2013-07-08 05:53:00,